Time;durP1;ratioP1;P1;durP2;ratioP2;P2;SDS_P1;SDS_P2;PMS_P1;PMS_P2;Temp;Humidity;BMP_temperature;BMP_pressure;BME280_temperature;BME280_humidity;BME280_pressure;Samples;Min_cycle;Max_cycle;Signal;HPM_P1;HPM_P2
2023/01/18 00:03:33;;;;;;;3.03;1.60;;;;;;;3.45;71.69;97629.38;10251019;28;20040;-63
2023/01/18 00:08:37;;;;;;;3.80;1.55;;;;;;;3.45;71.98;97620.63;10257098;28;20040;-64
2023/01/18 00:13:38;;;;;;;4.68;2.30;;;;;;;3.47;71.84;97619.38;10255676;28;20059;-65
2023/01/18 00:18:40;;;;;;;7.68;2.50;;;;;;;3.54;71.60;97612.28;10254211;28;20044;-64
2023/01/18 00:23:41;;;;;;;3.22;2.00;;;;;;;3.53;71.48;97623.09;10251374;29;20032;-64
2023/01/18 00:28:43;;;;;;;4.20;1.73;;;;;;;3.48;71.69;97618.38;10250099;29;20115;-65
2023/01/18 00:33:46;;;;;;;4.65;1.55;;;;;;;3.50;71.61;97615.53;10256761;29;20047;-63
2023/01/18 00:38:50;;;;;;;5.30;1.65;;;;;;;3.52;71.33;97613.50;10233692;29;20043;-65
2023/01/18 00:43:51;;;;;;;4.35;1.55;;;;;;;3.51;71.72;97615.31;10254635;28;20028;-64
2023/01/18 00:48:53;;;;;;;3.05;1.95;;;;;;;3.52;71.46;97622.28;10258219;28;20031;-64
2023/01/18 00:53:55;;;;;;;5.28;1.95;;;;;;;3.47;71.93;97618.56;10258913;29;20051;-64
2023/01/18 00:58:56;;;;;;;3.95;1.60;;;;;;;3.45;71.86;97623.28;10258472;28;20031;-64
2023/01/18 01:09:21;;;;;;;2.05;1.20;;;;;;;3.38;72.30;97620.59;10260958;29;20032;-65
2023/01/18 01:30:23;;;;;;;2.97;1.40;;;;;;;3.51;71.87;97638.41;10260881;28;20044;-64
2023/01/18 01:35:25;;;;;;;4.93;1.33;;;;;;;3.59;71.45;97643.53;10255953;29;20028;-62
2023/01/18 01:40:26;;;;;;;4.47;1.75;;;;;;;3.63;71.44;97647.44;10256065;29;20038;-63
2023/01/18 01:45:30;;;;;;;3.95;1.58;;;;;;;3.66;71.09;97649.72;10262872;29;20023;-63
2023/01/18 01:50:37;;;;;;;5.50;2.25;;;;;;;3.68;70.95;97657.50;10257673;28;20079;-63
2023/01/18 01:55:39;;;;;;;3.20;1.63;;;;;;;3.67;71.47;97658.50;10258422;29;20052;-65
2023/01/18 02:00:41;;;;;;;2.20;1.65;;;;;;;3.68;71.43;97666.28;10255178;29;20107;-65
2023/01/18 02:05:46;;;;;;;7.03;2.92;;;;;;;3.69;71.41;97670.56;10258884;28;20043;-64
2023/01/18 02:10:48;;;;;;;4.20;1.50;;;;;;;3.69;71.52;97669.72;10255107;29;20056;-64
2023/01/18 02:16:09;;;;;;;6.70;2.10;;;;;;;3.69;71.47;97675.88;10254086;28;20051;-64
2023/01/18 02:21:15;;;;;;;4.53;1.75;;;;;;;3.69;71.28;97683.00;10256859;28;20028;-64
2023/01/18 02:26:48;;;;;;;3.75;1.40;;;;;;;3.66;71.47;97696.72;10252903;29;20035;-63
2023/01/18 02:32:13;;;;;;;4.25;1.77;;;;;;;3.60;71.87;97695.66;10251812;29;20119;-66
2023/01/18 02:37:41;;;;;;;2.58;1.40;;;;;;;3.61;72.05;97707.91;10229813;29;20046;-64
2023/01/18 02:48:04;;;;;;;2.33;1.30;;;;;;;3.56;72.68;97713.81;10252449;28;20038;-64
2023/01/18 02:53:06;;;;;;;1.63;1.17;;;;;;;3.62;72.54;97720.19;10255305;28;20040;-65
2023/01/18 02:58:17;;;;;;;9.05;1.65;;;;;;;3.66;72.30;97724.09;10257764;29;20031;-64
2023/01/18 03:03:20;;;;;;;3.13;2.00;;;;;;;3.68;72.32;97734.53;10256328;28;20043;-65
2023/01/18 03:08:34;;;;;;;2.95;1.40;;;;;;;3.73;72.15;97732.06;10255744;28;20039;-65
2023/01/18 03:13:47;;;;;;;5.45;1.85;;;;;;;3.68;72.10;97740.66;10248862;29;20034;-64
2023/01/18 03:19:01;;;;;;;7.85;2.47;;;;;;;3.65;72.27;97743.69;10251945;29;20051;-66
2023/01/18 03:24:05;;;;;;;5.32;1.73;;;;;;;3.63;72.20;97735.09;10254736;29;20028;-64
2023/01/18 03:34:50;;;;;;;2.67;1.45;;;;;;;3.66;72.78;97752.50;10254026;28;20050;-64
2023/01/18 03:40:00;;;;;;;3.92;1.95;;;;;;;3.67;72.36;97765.56;10252816;28;20091;-62
2023/01/18 03:45:31;;;;;;;4.25;1.90;;;;;;;3.69;72.49;97774.19;10257536;28;20055;-63
2023/01/18 03:51:04;;;;;;;4.63;1.25;;;;;;;3.76;72.19;97776.88;10253963;29;20052;-64
2023/01/18 03:56:26;;;;;;;6.35;1.77;;;;;;;3.74;72.10;97784.22;10254124;28;20028;-65
2023/01/18 04:01:28;;;;;;;8.77;1.52;;;;;;;3.78;72.26;97788.13;10252357;28;20035;-64
2023/01/18 04:06:31;;;;;;;5.50;1.88;;;;;;;3.78;72.12;97796.91;10255303;28;20039;-63
2023/01/18 04:11:33;;;;;;;2.22;1.33;;;;;;;3.80;72.00;97799.38;10253941;28;20051;-65
2023/01/18 04:16:34;;;;;;;6.47;1.42;;;;;;;3.78;72.13;97804.88;10250105;29;20039;-65
2023/01/18 04:21:37;;;;;;;3.17;1.13;;;;;;;3.86;72.13;97809.22;10258951;29;20106;-63
2023/01/18 04:26:38;;;;;;;6.63;1.02;;;;;;;3.85;71.67;97817.38;10257923;28;20283;-65
2023/01/18 04:31:40;;;;;;;2.35;0.90;;;;;;;3.84;72.57;97813.91;10258577;29;20031;-64
2023/01/18 04:36:41;;;;;;;3.53;1.00;;;;;;;3.86;72.12;97822.50;10241907;29;20035;-65
2023/01/18 04:41:43;;;;;;;4.18;1.20;;;;;;;3.85;71.86;97830.66;10260318;28;20059;-64
2023/01/18 04:46:46;;;;;;;5.95;0.77;;;;;;;3.83;72.01;97830.03;10260634;28;20043;-63
2023/01/18 04:51:47;;;;;;;2.78;0.80;;;;;;;3.81;71.88;97835.56;10258081;28;20047;-64
2023/01/18 04:56:49;;;;;;;5.18;0.90;;;;;;;3.80;72.32;97833.91;10256631;29;20039;-64
2023/01/18 05:01:50;;;;;;;3.10;1.10;;;;;;;3.80;71.72;97841.06;10249683;29;20047;-63
2023/01/18 05:06:51;;;;;;;2.13;0.82;;;;;;;3.77;71.78;97852.88;10242365;29;20086;-65
2023/01/18 05:11:53;;;;;;;6.03;0.80;;;;;;;3.68;71.86;97862.84;10250934;29;20051;-61
2023/01/18 05:16:54;;;;;;;2.30;0.70;;;;;;;3.68;71.93;97867.34;10238917;29;20040;-64
2023/01/18 05:21:56;;;;;;;2.53;0.70;;;;;;;3.69;71.68;97875.13;10241713;29;20047;-64
2023/01/18 05:26:57;;;;;;;3.30;0.75;;;;;;;3.75;71.38;97876.16;10242264;29;20036;-61
2023/01/18 05:31:59;;;;;;;5.80;1.02;;;;;;;3.75;71.91;97886.78;10238799;29;20052;-60
2023/01/18 05:37:00;;;;;;;2.85;0.70;;;;;;;3.77;71.47;97898.88;10238582;29;20127;-63
2023/01/18 05:42:02;;;;;;;4.85;0.70;;;;;;;3.77;71.35;97908.69;10247212;29;20055;-62
2023/01/18 05:47:03;;;;;;;4.25;0.90;;;;;;;3.76;71.25;97905.19;10236901;29;20055;-63
2023/01/18 05:52:07;;;;;;;2.90;0.85;;;;;;;3.76;71.44;97913.19;10233362;29;20047;-63
2023/01/18 05:57:09;;;;;;;2.97;0.70;;;;;;;3.74;71.33;97920.53;10232378;29;20059;-62
2023/01/18 06:02:10;;;;;;;1.40;0.52;;;;;;;3.73;70.91;97931.31;10234338;29;20043;-63
2023/01/18 06:07:13;;;;;;;5.45;0.60;;;;;;;3.70;71.28;97935.19;10238872;29;20051;-63
2023/01/18 06:12:15;;;;;;;1.58;0.65;;;;;;;3.72;71.30;97951.78;10239813;29;20059;-61
2023/01/18 06:17:16;;;;;;;4.70;0.70;;;;;;;3.74;70.96;97954.25;10235487;29;20048;-62
2023/01/18 06:22:18;;;;;;;4.10;0.60;;;;;;;3.73;70.88;97958.75;10231937;29;20111;-63
2023/01/18 06:27:19;;;;;;;2.97;0.70;;;;;;;3.74;70.60;97963.03;10241322;29;20047;-64
2023/01/18 06:32:21;;;;;;;2.60;0.60;;;;;;;3.77;70.72;97967.97;10241325;29;20051;-63
2023/01/18 06:37:24;;;;;;;4.78;0.65;;;;;;;3.73;70.82;97981.81;10225343;29;20035;-60
2023/01/18 06:42:25;;;;;;;1.65;0.50;;;;;;;3.76;70.02;97982.25;10221671;28;20051;-64
2023/01/18 06:47:27;;;;;;;5.25;0.70;;;;;;;3.74;70.07;97986.94;10226493;29;20052;-61
2023/01/18 06:52:28;;;;;;;1.92;0.50;;;;;;;3.69;70.32;97994.69;10223155;29;20047;-60
2023/01/18 06:57:30;;;;;;;2.17;1.23;;;;;;;3.71;69.87;98005.94;10228280;29;20050;-67
2023/01/18 07:02:32;;;;;;;1.30;0.70;;;;;;;3.81;69.60;98018.06;10254290;29;20048;-66
2023/01/18 07:07:33;;;;;;;2.75;0.60;;;;;;;3.82;69.90;98033.00;10252604;28;20397;-65
2023/01/18 07:12:35;;;;;;;3.85;0.80;;;;;;;3.81;69.41;98049.94;10254553;28;20042;-65
2023/01/18 07:34:52;;;;;;;20.85;6.38;;;;;;;3.51;70.21;98089.88;10215558;28;20031;-86
2023/01/18 07:39:53;;;;;;;2.45;1.58;;;;;;;3.41;69.81;98095.50;10226798;28;20050;-87
2023/01/18 07:44:55;;;;;;;4.57;1.30;;;;;;;3.33;69.97;98109.69;10252814;28;20422;-86
2023/01/18 07:49:56;;;;;;;4.35;1.85;;;;;;;3.31;70.02;98119.69;10275136;28;20062;-87
2023/01/18 07:54:57;;;;;;;6.35;1.30;;;;;;;3.16;70.39;98117.03;10276777;28;20059;-88
2023/01/18 07:59:59;;;;;;;4.03;1.75;;;;;;;3.20;70.35;98127.28;10275111;28;20058;-87
2023/01/18 08:05:01;;;;;;;7.57;1.83;;;;;;;3.22;70.37;98142.03;10280380;28;20062;-87
2023/01/18 08:10:03;;;;;;;5.38;1.73;;;;;;;3.21;70.25;98150.19;10270790;28;20225;-87
2023/01/18 08:15:05;;;;;;;6.15;1.92;;;;;;;3.22;70.23;98160.63;10261680;28;20546;-88
2023/01/18 08:20:08;;;;;;;6.05;1.85;;;;;;;3.19;70.71;98160.97;10281705;28;20149;-88
2023/01/18 08:25:09;;;;;;;5.15;2.35;;;;;;;3.18;70.38;98167.31;10270600;28;20455;-87
2023/01/18 08:30:11;;;;;;;9.25;3.00;;;;;;;3.25;70.12;98172.69;10271153;28;20054;-87
2023/01/18 08:35:13;;;;;;;5.43;2.00;;;;;;;3.34;69.98;98176.91;10259452;28;20047;-88
2023/01/18 08:40:14;;;;;;;5.32;2.75;;;;;;;3.24;70.53;98181.66;10262683;28;20069;-88
2023/01/18 08:45:16;;;;;;;3.72;1.77;;;;;;;3.17;70.39;98186.88;10261579;28;20074;-88
2023/01/18 08:50:18;;;;;;;7.07;2.22;;;;;;;3.18;70.47;98205.28;10254756;28;20115;-88
2023/01/18 08:55:20;;;;;;;7.68;2.10;;;;;;;3.23;70.46;98211.88;10280738;28;20058;-88
2023/01/18 09:00:23;;;;;;;5.45;1.80;;;;;;;3.20;70.52;98222.84;10274021;28;20054;-88
2023/01/18 09:05:27;;;;;;;6.93;2.70;;;;;;;3.24;70.17;98238.25;10273650;28;20083;-88
2023/01/18 09:10:29;;;;;;;4.65;1.42;;;;;;;3.26;69.87;98244.22;10271707;28;20058;-88
2023/01/18 09:15:31;;;;;;;6.80;2.45;;;;;;;3.32;70.09;98255.94;10268004;28;20050;-88
2023/01/18 09:20:34;;;;;;;6.15;2.22;;;;;;;3.46;69.96;98259.59;10276672;28;20046;-90
2023/01/18 09:25:36;;;;;;;7.18;2.25;;;;;;;3.64;69.58;98261.91;10271159;28;20528;-91
2023/01/18 09:30:38;;;;;;;7.20;1.83;;;;;;;3.69;69.86;98270.97;10259466;28;20356;-90
2023/01/18 09:35:39;;;;;;;5.85;2.33;;;;;;;3.74;70.02;98281.03;10273172;28;20051;-89
2023/01/18 09:40:44;;;;;;;7.18;1.80;;;;;;;3.77;69.31;98288.63;10269965;28;20050;-88
2023/01/18 09:45:46;;;;;;;7.07;1.67;;;;;;;3.89;69.42;98310.25;10288631;28;20073;-89
2023/01/18 09:50:48;;;;;;;4.22;1.85;;;;;;;4.02;68.99;98309.63;10279617;28;20059;-88
2023/01/18 09:55:53;;;;;;;8.05;1.67;;;;;;;4.27;68.91;98318.13;10261297;28;20051;-88
2023/01/18 10:01:01;;;;;;;8.10;2.10;;;;;;;4.38;68.54;98325.63;10266073;28;20066;-89
2023/01/18 10:06:08;;;;;;;5.50;1.60;;;;;;;4.56;68.09;98318.06;10266412;28;20057;-89
2023/01/18 10:11:46;;;;;;;5.47;2.30;;;;;;;4.60;68.66;98321.19;10266856;28;20057;-89
2023/01/18 10:16:58;;;;;;;3.50;1.52;;;;;;;4.67;68.13;98339.88;10245453;28;20039;-87
2023/01/18 10:22:07;;;;;;;6.93;1.80;;;;;;;4.74;68.17;98338.13;10273608;28;20656;-88
2023/01/18 10:27:26;;;;;;;2.63;1.10;;;;;;;4.83;68.08;98349.47;10257513;28;20047;-88
2023/01/18 10:32:29;;;;;;;12.98;2.97;;;;;;;4.93;67.32;98334.81;10249950;28;20065;-88
2023/01/18 10:37:44;;;;;;;6.60;1.45;;;;;;;5.13;67.12;98350.16;10264926;28;20058;-89
2023/01/18 10:42:48;;;;;;;5.47;1.33;;;;;;;5.28;67.26;98356.25;10248784;28;20055;-87
2023/01/18 10:47:54;;;;;;;2.87;0.67;;;;;;;5.23;66.76;98358.66;10254621;28;20039;-87
2023/01/18 10:52:57;;;;;;;4.35;1.17;;;;;;;5.27;66.41;98357.28;10240482;28;20062;-86
2023/01/18 10:58:01;;;;;;;2.15;0.68;;;;;;;5.34;65.99;98355.47;10252149;28;20084;-87
2023/01/18 11:03:04;;;;;;;4.75;0.63;;;;;;;5.35;65.21;98366.94;10269628;28;20051;-88
2023/01/18 11:08:10;;;;;;;5.05;1.10;;;;;;;5.46;65.03;98371.78;10245286;28;20043;-88
2023/01/18 11:13:49;;;;;;;8.20;0.80;;;;;;;5.46;64.49;98377.09;10263367;28;20075;-86
2023/01/18 11:19:05;;;;;;;2.90;0.60;;;;;;;5.39;63.99;98384.22;10243312;28;20065;-87
2023/01/18 11:24:11;;;;;;;4.45;1.05;;;;;;;5.41;63.98;98382.19;10258549;28;20050;-87
2023/01/18 11:29:14;;;;;;;3.60;1.58;;;;;;;5.60;63.91;98378.03;10259254;28;20102;-87
2023/01/18 11:34:31;;;;;;;7.65;1.60;;;;;;;5.71;63.03;98379.38;10248871;28;20580;-87
2023/01/18 11:39:35;;;;;;;4.18;1.38;;;;;;;5.63;63.42;98383.00;10249278;28;20047;-87
2023/01/18 11:45:11;;;;;;;3.20;1.23;;;;;;;5.47;63.22;98383.25;10252589;28;20112;-87
2023/01/18 11:50:14;;;;;;;4.38;1.63;;;;;;;5.58;63.23;98380.06;10259386;28;20066;-87
2023/01/18 11:55:46;;;;;;;3.38;1.23;;;;;;;5.80;62.02;98394.19;10259880;28;20068;-87
2023/01/18 12:01:04;;;;;;;7.10;1.38;;;;;;;5.77;62.50;98399.91;10268321;28;20081;-87
2023/01/18 12:06:12;;;;;;;;;;;;;;;5.80;63.75;98404.84;10266183;28;20042;-87
2023/01/18 12:11:37;;;;;;;4.30;1.70;;;;;;;5.73;63.43;98394.13;10267274;28;19926;-86
2023/01/18 12:16:50;;;;;;;8.13;1.50;;;;;;;5.78;62.64;98406.06;10255469;28;20058;-87
2023/01/18 12:22:40;;;;;;;8.20;2.90;;;;;;;5.75;62.48;98410.75;10254500;28;20129;-87
2023/01/18 12:28:06;;;;;;;9.88;2.45;;;;;;;5.86;62.82;98425.38;10273438;28;20062;-87
2023/01/18 12:33:44;;;;;;;3.45;1.75;;;;;;;5.75;61.38;98432.09;10249917;28;20054;-86
2023/01/18 12:38:52;;;;;;;7.53;2.50;;;;;;;5.80;61.56;98439.50;10246279;28;20051;-85
2023/01/18 12:44:24;;;;;;;4.60;1.67;;;;;;;5.75;61.48;98444.59;10253690;28;20059;-86
2023/01/18 12:49:33;;;;;;;2.63;1.10;;;;;;;5.72;61.20;98452.97;10249857;28;20058;-86
2023/01/18 12:54:40;;;;;;;4.00;1.95;;;;;;;5.71;60.88;98457.47;10266570;28;20062;-86
2023/01/18 12:59:54;;;;;;;9.93;2.78;;;;;;;5.88;60.95;98462.53;10280315;28;20043;-86
2023/01/18 13:05:02;;;;;;;5.82;2.85;;;;;;;6.05;60.86;98469.28;10236612;28;20050;-86
2023/01/18 13:10:15;;;;;;;13.02;4.25;;;;;;;6.09;61.03;98470.53;10258183;28;20047;-85
2023/01/18 13:15:31;;;;;;;7.20;1.95;;;;;;;5.93;61.44;98489.47;10263353;28;20077;-86
2023/01/18 13:20:35;;;;;;;7.32;2.20;;;;;;;5.65;60.54;98492.09;10260177;28;20387;-86
2023/01/18 13:25:58;;;;;;;5.13;2.20;;;;;;;5.74;60.27;98494.41;10260129;28;20062;-86
2023/01/18 13:31:05;;;;;;;6.68;2.33;;;;;;;5.62;60.37;98497.78;10270560;28;20059;-87
2023/01/18 13:36:10;;;;;;;8.77;2.92;;;;;;;5.62;59.88;98517.25;10248175;28;20061;-87
2023/01/18 13:41:13;;;;;;;10.05;2.25;;;;;;;5.55;60.28;98519.88;10248221;28;20537;-88
2023/01/18 13:46:21;;;;;;;6.88;2.38;;;;;;;5.44;60.76;98517.69;10254613;28;20070;-88
2023/01/18 13:51:35;;;;;;;9.73;3.10;;;;;;;5.39;60.49;98520.09;10257473;28;20070;-87
2023/01/18 13:56:38;;;;;;;5.95;3.03;;;;;;;5.55;61.32;98535.03;10254765;28;20046;-87
2023/01/18 14:01:45;;;;;;;10.38;3.20;;;;;;;5.64;61.28;98539.22;10252967;28;20054;-88
2023/01/18 14:06:47;;;;;;;7.22;4.05;;;;;;;5.65;61.34;98545.41;10250224;28;20505;-88
2023/01/18 14:11:58;;;;;;;10.10;3.28;;;;;;;5.63;61.40;98555.38;10252083;28;20093;-88
2023/01/18 14:17:14;;;;;;;6.18;2.63;;;;;;;5.48;61.48;98566.91;10253614;28;20077;-88
2023/01/18 14:22:33;;;;;;;6.95;2.35;;;;;;;5.56;61.67;98579.31;10236487;28;20520;-88
2023/01/18 14:27:43;;;;;;;9.10;2.67;;;;;;;5.42;61.38;98590.84;10256681;28;20054;-87
2023/01/18 14:32:58;;;;;;;5.80;2.25;;;;;;;5.19;61.71;98596.28;10257750;28;20443;-88
2023/01/18 14:38:11;;;;;;;7.65;2.75;;;;;;;5.07;61.72;98607.38;10250088;28;20083;-87
2023/01/18 14:43:34;;;;;;;5.65;2.40;;;;;;;4.81;60.64;98625.66;10246466;28;20054;-87
2023/01/18 14:48:56;;;;;;;5.35;2.47;;;;;;;4.81;61.47;98637.13;10259674;28;20065;-89
2023/01/18 14:54:02;;;;;;;5.60;2.75;;;;;;;4.52;60.47;98643.19;10264158;28;20042;-87
2023/01/18 14:59:30;;;;;;;5.68;2.80;;;;;;;4.47;60.71;98654.38;10254304;28;20055;-87
2023/01/18 15:04:37;;;;;;;7.85;2.60;;;;;;;4.49;61.15;98652.38;10269679;28;20110;-86
2023/01/18 15:09:43;;;;;;;8.80;2.10;;;;;;;4.49;61.63;98660.34;10256058;28;20054;-86
2023/01/18 15:14:47;;;;;;;9.73;3.13;;;;;;;4.36;61.51;98663.63;10247346;28;20067;-87
2023/01/18 15:19:53;;;;;;;4.88;2.28;;;;;;;4.36;61.36;98687.56;10261888;28;20054;-87
2023/01/18 15:24:57;;;;;;;12.95;3.90;;;;;;;4.50;61.65;98687.78;10258675;28;20066;-87
2023/01/18 15:30:00;;;;;;;7.05;2.30;;;;;;;4.50;62.01;98687.78;10250587;28;20047;-87
2023/01/18 15:35:04;;;;;;;8.23;2.25;;;;;;;4.42;61.86;98707.28;10243359;28;20039;-87
2023/01/18 15:40:12;;;;;;;4.72;2.20;;;;;;;4.43;61.69;98705.47;10258605;28;20497;-87
2023/01/18 15:45:22;;;;;;;6.50;2.92;;;;;;;4.50;61.21;98717.91;10255507;28;20055;-87
2023/01/18 15:50:35;;;;;;;11.55;3.25;;;;;;;4.59;61.77;98731.13;10246136;28;20090;-89
2023/01/18 15:56:02;;;;;;;8.40;3.53;;;;;;;4.48;61.93;98730.56;10270292;28;20065;-90
2023/01/18 16:01:20;;;;;;;6.00;2.28;;;;;;;4.46;61.49;98742.34;10254613;28;20455;-88
2023/01/18 16:06:35;;;;;;;4.55;2.33;;;;;;;4.53;61.70;98741.47;10259007;28;20054;-88
2023/01/18 16:11:55;;;;;;;4.88;2.22;;;;;;;4.52;61.98;98750.47;10255635;28;20042;-87
2023/01/18 16:17:05;;;;;;;7.85;3.22;;;;;;;4.44;62.07;98753.16;10255646;28;20113;-87
2023/01/18 16:22:19;;;;;;;12.38;4.13;;;;;;;4.37;62.07;98776.16;10274408;28;20061;-86
2023/01/18 16:27:26;;;;;;;11.82;4.65;;;;;;;4.28;62.31;98783.34;10266455;28;20050;-92
2023/01/18 16:32:37;;;;;;;11.93;4.72;;;;;;;4.15;62.83;98801.72;10268134;28;20085;-87
2023/01/18 16:37:45;;;;;;;14.95;6.13;;;;;;;4.00;63.01;98801.59;10279983;28;20054;-88
2023/01/18 16:43:04;;;;;;;16.63;6.82;;;;;;;3.95;63.12;98807.44;10259297;28;20054;-88
2023/01/18 16:48:15;;;;;;;13.43;7.03;;;;;;;3.92;62.87;98810.44;10269501;28;20053;-89
2023/01/18 16:53:17;;;;;;;14.93;7.35;;;;;;;3.87;63.53;98820.75;10294839;28;20055;-86
2023/01/18 16:58:20;;;;;;;17.08;7.32;;;;;;;3.75;63.69;98827.41;10288384;28;20061;-85
2023/01/18 17:03:22;;;;;;;14.27;8.05;;;;;;;3.60;64.46;98843.25;10298115;28;20067;-86
2023/01/18 17:08:23;;;;;;;17.17;7.45;;;;;;;3.38;64.72;98856.22;10274905;28;20053;-90
2023/01/18 17:13:25;;;;;;;19.98;9.20;;;;;;;3.23;65.25;98849.91;10295709;23;20070;-61
2023/01/18 17:18:26;;;;;;;18.08;9.40;;;;;;;3.11;65.95;98861.84;10328124;28;20054;-61
2023/01/18 17:23:28;;;;;;;18.85;9.13;;;;;;;3.21;65.68;98859.03;10329201;28;20119;-66
2023/01/18 17:28:29;;;;;;;16.02;7.80;;;;;;;3.29;65.39;98869.66;10327337;28;20618;-66
2023/01/18 17:33:31;;;;;;;21.95;9.52;;;;;;;3.30;65.13;98874.81;10309829;28;20062;-61
2023/01/18 17:38:33;;;;;;;20.77;9.23;;;;;;;3.19;65.67;98869.81;10330959;28;20050;-64
2023/01/18 17:43:35;;;;;;;19.30;8.32;;;;;;;3.12;66.12;98887.38;10332312;28;20078;-64
2023/01/18 17:48:37;;;;;;;20.50;10.27;;;;;;;3.12;66.11;98890.91;10315367;28;20080;-64
2023/01/18 17:53:39;;;;;;;24.73;10.90;;;;;;;3.12;65.76;98901.50;10325056;28;20070;-61
2023/01/18 17:58:45;;;;;;;26.88;10.77;;;;;;;3.06;66.02;98911.94;10328285;28;20054;-62
2023/01/18 18:03:48;;;;;;;26.42;12.88;;;;;;;2.95;66.30;98931.66;10324155;28;20077;-64
2023/01/18 18:08:49;;;;;;;23.65;12.60;;;;;;;2.79;66.19;98932.47;10329751;28;20061;-63
2023/01/18 18:13:52;;;;;;;25.85;10.73;;;;;;;2.51;67.00;98937.16;10337209;28;20051;-62
2023/01/18 18:18:53;;;;;;;22.02;10.43;;;;;;;2.46;66.81;98945.59;10319316;28;20101;-62
2023/01/18 18:23:54;;;;;;;17.00;9.55;;;;;;;2.40;67.57;98948.06;10327358;28;20050;-63
2023/01/18 18:28:56;;;;;;;21.52;10.55;;;;;;;2.40;67.43;98950.69;10326164;28;20039;-63
2023/01/18 18:33:57;;;;;;;19.90;10.65;;;;;;;2.34;67.26;98957.47;10323733;28;20047;-63
2023/01/18 18:39:03;;;;;;;22.20;11.25;;;;;;;2.26;67.73;98965.38;10298124;28;20046;-63
2023/01/18 18:44:05;;;;;;;23.30;11.88;;;;;;;2.17;67.58;98967.13;10316195;28;20057;-66
2023/01/18 18:49:07;;;;;;;29.33;12.63;;;;;;;2.09;67.94;98972.38;10315932;28;20054;-64
2023/01/18 18:54:11;;;;;;;28.20;12.48;;;;;;;2.04;67.58;98977.34;10317562;28;20883;-64
2023/01/18 18:59:13;;;;;;;33.90;14.10;;;;;;;1.95;68.17;98987.03;10316545;28;20055;-65
2023/01/18 19:04:14;;;;;;;33.63;13.90;;;;;;;1.85;68.27;98991.59;10324594;28;20057;-62
2023/01/18 19:09:16;;;;;;;52.55;20.00;;;;;;;1.77;68.34;98997.66;10327563;28;20054;-62
2023/01/18 19:14:17;;;;;;;46.45;16.88;;;;;;;1.70;68.02;98999.25;10323418;28;20460;-67
2023/01/18 19:19:19;;;;;;;55.78;22.17;;;;;;;1.61;68.40;99008.13;10317139;28;20062;-64
2023/01/18 19:24:20;;;;;;;36.13;15.90;;;;;;;1.51;68.76;99008.19;10311045;28;20502;-64
2023/01/18 19:29:21;;;;;;;23.27;10.85;;;;;;;1.50;68.69;99012.66;10313178;28;20097;-63
2023/01/18 19:34:23;;;;;;;41.88;17.83;;;;;;;1.47;69.38;99002.38;10316561;28;20058;-64
2023/01/18 19:39:25;;;;;;;33.28;15.00;;;;;;;1.45;68.71;99009.63;10311641;28;20054;-67
2023/01/18 19:44:26;;;;;;;44.15;19.17;;;;;;;1.36;69.75;99019.31;10309177;28;20058;-65
2023/01/18 19:49:28;;;;;;;50.95;21.15;;;;;;;1.31;69.00;99018.09;10311340;28;20047;-62
2023/01/18 19:54:29;;;;;;;30.90;14.68;;;;;;;1.26;69.71;99034.41;10318458;28;20051;-63
2023/01/18 19:59:31;;;;;;;33.58;13.93;;;;;;;1.21;69.53;99036.69;10322001;28;20102;-64
2023/01/18 20:04:32;;;;;;;32.58;14.52;;;;;;;1.16;69.63;99049.53;10342314;28;20067;-62
2023/01/18 20:09:34;;;;;;;41.05;15.85;;;;;;;1.14;69.70;99051.47;10336865;28;20179;-61
2023/01/18 20:14:44;;;;;;;29.90;13.02;;;;;;;1.11;69.25;99067.66;10335385;28;20046;-63
2023/01/18 20:19:45;;;;;;;33.13;14.90;;;;;;;1.05;70.13;99061.16;10322911;28;20050;-64
2023/01/18 20:24:47;;;;;;;34.78;14.68;;;;;;;1.04;70.32;99071.88;10331119;28;20053;-64
2023/01/18 20:29:48;;;;;;;33.08;15.75;;;;;;;1.00;70.37;99068.69;10328213;28;20047;-64
2023/01/18 20:34:50;;;;;;;32.85;14.95;;;;;;;0.94;70.25;99075.38;10324647;28;20054;-64
2023/01/18 20:39:51;;;;;;;28.10;13.07;;;;;;;0.92;70.69;99077.34;10325383;28;20164;-64
2023/01/18 20:44:59;;;;;;;31.73;12.75;;;;;;;0.88;70.03;99085.72;10328732;28;20057;-62
2023/01/18 20:50:02;;;;;;;31.08;12.52;;;;;;;0.89;70.61;99090.88;10328902;28;20089;-61
2023/01/18 20:55:03;;;;;;;33.50;14.13;;;;;;;0.91;70.33;99094.22;10330019;28;20054;-62
2023/01/18 21:00:06;;;;;;;31.27;14.10;;;;;;;0.91;70.71;99099.50;10332537;28;20279;-63
2023/01/18 21:05:07;;;;;;;24.67;12.13;;;;;;;0.90;70.04;99110.22;10339724;28;20047;-62
2023/01/18 21:10:09;;;;;;;25.08;11.98;;;;;;;0.91;70.78;99114.53;10330150;28;20058;-63
2023/01/18 21:15:11;;;;;;;28.30;12.05;;;;;;;0.93;70.88;99120.53;10333117;28;20085;-62
2023/01/18 21:20:12;;;;;;;19.08;9.93;;;;;;;0.91;70.73;99125.97;10324749;28;20073;-64
2023/01/18 21:25:14;;;;;;;19.05;9.52;;;;;;;0.90;70.40;99126.91;10321314;28;20050;-61
2023/01/18 21:30:16;;;;;;;18.90;8.32;;;;;;;0.88;71.31;99128.06;10319880;28;20063;-61
2023/01/18 21:35:17;;;;;;;19.35;8.05;;;;;;;0.99;72.03;99130.53;10325189;28;20081;-61
2023/01/18 21:40:19;;;;;;;13.73;7.28;;;;;;;1.06;71.62;99134.25;10317775;28;20051;-63
2023/01/18 21:56:00;;;;;;;15.20;6.60;;;;;;;1.26;72.40;99136.81;10318258;28;20050;-63
2023/01/18 22:01:13;;;;;;;15.63;7.43;;;;;;;1.32;71.53;99142.38;10313938;28;20552;-62
2023/01/18 22:06:14;;;;;;;12.63;6.97;;;;;;;1.38;71.98;99159.47;10319903;28;20090;-64
2023/01/18 22:11:16;;;;;;;14.18;6.32;;;;;;;1.41;72.22;99155.69;10318293;28;20105;-62
2023/01/18 22:16:17;;;;;;;15.15;6.88;;;;;;;1.45;71.98;99165.84;10313437;28;20089;-63
2023/01/18 22:21:19;;;;;;;16.08;7.10;;;;;;;1.45;71.99;99165.03;10316901;28;20047;-63
2023/01/18 22:26:22;;;;;;;20.55;7.70;;;;;;;1.47;71.56;99168.34;10317509;28;20058;-61
2023/01/18 22:31:24;;;;;;;20.25;6.85;;;;;;;1.46;72.29;99180.75;10326221;28;20112;-63
2023/01/18 22:36:26;;;;;;;13.63;6.63;;;;;;;1.49;71.45;99188.41;10304009;28;20194;-63
2023/01/18 22:41:28;;;;;;;14.77;6.88;;;;;;;1.43;71.89;99199.59;10321046;28;20065;-60
2023/01/18 22:46:29;;;;;;;15.68;7.35;;;;;;;1.39;71.81;99193.72;10315680;28;20106;-61
2023/01/18 22:51:31;;;;;;;16.67;6.80;;;;;;;1.33;72.29;99196.97;10310918;28;20081;-62
2023/01/18 22:56:32;;;;;;;19.08;6.53;;;;;;;1.34;71.46;99201.31;10315430;28;20454;-62
2023/01/18 23:01:34;;;;;;;14.38;6.78;;;;;;;1.35;71.82;99204.78;10310971;28;20042;-63
2023/01/18 23:06:45;;;;;;;14.43;6.65;;;;;;;1.36;71.13;99211.72;10314067;28;20050;-60
2023/01/18 23:11:46;;;;;;;14.40;7.25;;;;;;;1.30;71.70;99207.84;10305975;28;20051;-59
2023/01/18 23:22:08;;;;;;;15.95;6.20;;;;;;;1.24;71.56;99215.53;10312569;28;20054;-60
2023/01/18 23:27:09;;;;;;;13.40;6.72;;;;;;;1.14;72.37;99215.56;10308000;28;20155;-62
2023/01/18 23:32:10;;;;;;;15.15;6.93;;;;;;;1.13;71.40;99220.03;10313726;28;20128;-61
2023/01/18 23:37:12;;;;;;;12.75;6.38;;;;;;;1.07;71.60;99225.06;10312953;28;20053;-61
2023/01/18 23:58:14;;;;;;;15.13;7.38;;;;;;;0.94;72.14;99233.28;10315249;28;20058;-62
